Time;durP1;ratioP1;P1;durP2;ratioP2;P2;SDS_P1;SDS_P2;PMS_P1;PMS_P2;Temp;Humidity;BMP_temperature;BMP_pressure;BME280_temperature;BME280_humidity;BME280_pressure;Samples;Min_cycle;Max_cycle;Signal;HPM_P1;HPM_P2
2022/11/14 00:00:24;;;;;;;46.83;43.53;;;;;;;9.23;100.00;102270.72;5011999;28;20420;-50
2022/11/14 00:02:52;;;;;;;48.43;44.80;;;;;;;9.28;100.00;102279.13;5011463;28;20535;-48
2022/11/14 00:05:20;;;;;;;48.53;44.83;;;;;;;9.27;100.00;102272.13;5011865;28;20877;-47
2022/11/14 00:07:48;;;;;;;47.70;43.97;;;;;;;9.33;100.00;102268.00;5011930;28;21221;-51
2022/11/14 00:10:16;;;;;;;48.50;44.90;;;;;;;9.32;100.00;102269.84;5012008;28;20479;-49
2022/11/14 00:12:44;;;;;;;47.80;44.30;;;;;;;9.32;100.00;102266.31;5011278;28;20449;-46
2022/11/14 00:15:14;;;;;;;48.30;44.70;;;;;;;9.30;100.00;102266.50;5011876;28;20523;-49
2022/11/14 00:17:41;;;;;;;47.70;44.27;;;;;;;9.32;100.00;102255.69;5011794;28;20826;-47
2022/11/14 00:20:12;;;;;;;49.63;46.03;;;;;;;9.29;100.00;102253.31;5004374;28;20439;-46
2022/11/14 00:22:39;;;;;;;49.70;46.00;;;;;;;9.31;100.00;102254.03;5009739;28;20547;-49
2022/11/14 00:25:07;;;;;;;48.60;45.03;;;;;;;9.30;100.00;102247.84;5014161;28;20422;-46
2022/11/14 00:27:35;;;;;;;48.90;45.13;;;;;;;9.32;100.00;102245.88;5015763;28;20441;-48
2022/11/14 00:30:03;;;;;;;48.10;44.40;;;;;;;9.29;100.00;102238.19;5015723;28;20429;-47
2022/11/14 00:32:32;;;;;;;48.47;44.90;;;;;;;9.29;100.00;102232.03;5016035;22;20493;-45
2022/11/14 00:35:00;;;;;;;48.73;45.33;;;;;;;9.25;100.00;102231.50;4990260;28;20477;-46
2022/11/14 00:37:28;;;;;;;50.17;46.37;;;;;;;9.29;100.00;102229.34;4996473;28;20441;-45
2022/11/14 00:39:55;;;;;;;49.07;45.50;;;;;;;9.27;100.00;102232.19;4996324;28;20484;-46
2022/11/14 00:42:23;;;;;;;47.30;43.87;;;;;;;9.27;100.00;102226.03;4995654;28;20489;-44
2022/11/14 00:44:50;;;;;;;49.47;45.57;;;;;;;9.27;100.00;102213.56;4996098;28;20942;-46
2022/11/14 00:47:18;;;;;;;48.87;45.07;;;;;;;9.26;100.00;102214.53;4996157;28;20935;-47
2022/11/14 00:49:47;;;;;;;49.03;45.33;;;;;;;9.23;100.00;102209.50;4996025;28;20442;-46
2022/11/14 00:52:14;;;;;;;48.73;45.03;;;;;;;9.27;100.00;102204.72;4995510;28;20520;-46
2022/11/14 00:54:42;;;;;;;49.93;46.10;;;;;;;9.24;100.00;102202.38;4996064;28;20437;-48
2022/11/14 00:57:09;;;;;;;49.90;46.20;;;;;;;9.24;100.00;102189.91;4995839;28;20478;-45
2022/11/14 00:59:37;;;;;;;50.63;46.77;;;;;;;9.26;100.00;102190.56;4996125;28;20496;-46
2022/11/14 01:02:05;;;;;;;49.67;45.87;;;;;;;9.22;100.00;102194.56;4995319;28;20524;-46
2022/11/14 01:04:32;;;;;;;51.43;47.73;;;;;;;9.18;100.00;102174.53;4995954;28;20438;-45
2022/11/14 01:07:01;;;;;;;49.97;46.20;;;;;;;9.17;100.00;102177.38;4995821;28;20441;-47
2022/11/14 01:09:29;;;;;;;50.73;47.10;;;;;;;9.18;100.00;102182.53;4995752;28;20481;-47
2022/11/14 01:11:57;;;;;;;50.53;46.83;;;;;;;9.22;100.00;102173.25;4994949;28;20983;-46
2022/11/14 01:14:24;;;;;;;51.00;46.90;;;;;;;9.19;100.00;102165.56;4995640;28;20438;-45
2022/11/14 01:16:52;;;;;;;51.50;47.60;;;;;;;9.18;100.00;102161.22;4995766;28;20477;-44
2022/11/14 01:19:19;;;;;;;48.77;45.37;;;;;;;9.14;100.00;102162.53;4996024;28;20469;-48
2022/11/14 01:21:47;;;;;;;49.60;45.90;;;;;;;9.13;100.00;102152.03;5001598;28;20464;-46
2022/11/14 01:24:16;;;;;;;51.47;47.53;;;;;;;9.11;100.00;102157.50;5014988;28;20432;-46
2022/11/14 01:26:43;;;;;;;51.53;47.50;;;;;;;9.07;100.00;102150.84;5015273;28;20490;-51
2022/11/14 01:29:11;;;;;;;50.47;46.87;;;;;;;9.07;100.00;102155.31;5014818;28;20433;-46
2022/11/14 01:31:38;;;;;;;52.23;48.40;;;;;;;9.09;100.00;102148.84;4992084;28;20469;-44
2022/11/14 01:34:06;;;;;;;51.90;48.07;;;;;;;9.05;100.00;102147.47;4992846;28;20503;-48
2022/11/14 01:36:34;;;;;;;52.93;48.63;;;;;;;9.07;100.00;102150.00;4993984;28;20609;-50
2022/11/14 01:39:01;;;;;;;51.37;47.47;;;;;;;9.04;100.00;102135.16;4995314;28;20442;-46
2022/11/14 01:41:30;;;;;;;49.60;45.80;;;;;;;9.03;100.00;102137.97;4994690;28;20525;-46
2022/11/14 01:43:58;;;;;;;51.77;48.07;;;;;;;9.00;100.00;102132.94;4995313;28;20438;-49
2022/11/14 01:46:30;;;;;;;52.40;48.13;;;;;;;8.95;100.00;102130.75;4995079;28;20440;-45
2022/11/14 01:49:01;;;;;;;51.63;47.67;;;;;;;8.95;100.00;102122.78;4995338;28;20438;-45
2022/11/14 01:51:33;;;;;;;53.93;49.70;;;;;;;8.92;100.00;102123.09;4994193;28;20450;-44
2022/11/14 01:54:03;;;;;;;54.00;49.93;;;;;;;8.84;100.00;102117.69;4995242;28;20847;-48
2022/11/14 01:56:36;;;;;;;53.33;48.93;;;;;;;8.85;100.00;102114.03;4995255;28;20521;-46
2022/11/14 01:59:07;;;;;;;53.80;49.70;;;;;;;8.80;100.00;102098.53;4994766;28;20939;-47
2022/11/14 02:01:37;;;;;;;53.97;49.80;;;;;;;8.77;100.00;102095.34;4994566;28;20493;-45
2022/11/14 02:04:06;;;;;;;53.50;49.27;;;;;;;8.71;100.00;102093.28;4994808;28;21234;-46
2022/11/14 02:06:41;;;;;;;54.30;50.00;;;;;;;8.65;100.00;102092.06;4994928;28;20818;-45
2022/11/14 02:09:08;;;;;;;54.20;49.97;;;;;;;8.64;100.00;102078.91;4994993;28;20493;-46
2022/11/14 02:11:40;;;;;;;57.30;52.53;;;;;;;8.59;100.00;102075.88;4994109;28;20500;-45
2022/11/14 02:14:09;;;;;;;55.30;50.73;;;;;;;8.56;100.00;102070.88;4995099;28;20434;-44
2022/11/14 02:16:37;;;;;;;58.40;53.77;;;;;;;8.48;100.00;102063.66;4994475;28;20478;-46
2022/11/14 02:19:05;;;;;;;55.43;51.07;;;;;;;8.43;100.00;102062.41;4994563;28;20438;-46
2022/11/14 02:21:34;;;;;;;56.63;52.20;;;;;;;8.36;100.00;102066.69;4998505;28;20993;-44
2022/11/14 02:24:02;;;;;;;55.77;51.17;;;;;;;8.27;100.00;102066.56;5014021;28;20429;-45
2022/11/14 02:26:30;;;;;;;57.73;52.87;;;;;;;8.23;100.00;102053.72;5014031;28;20425;-44
2022/11/14 02:29:04;;;;;;;57.30;52.27;;;;;;;8.17;100.00;102052.50;5014200;28;20433;-48
2022/11/14 02:31:32;;;;;;;57.43;52.83;;;;;;;8.11;100.00;102052.25;5013139;28;20461;-44
2022/11/14 02:34:00;;;;;;;56.83;52.00;;;;;;;8.04;100.00;102044.03;5014078;28;20484;-46
2022/11/14 02:36:27;;;;;;;58.80;54.10;;;;;;;8.03;100.00;102047.69;5013623;28;20523;-46
2022/11/14 02:38:56;;;;;;;59.30;54.40;;;;;;;8.03;100.00;102042.38;5013622;28;20488;-45
2022/11/14 02:41:24;;;;;;;55.93;51.47;;;;;;;8.07;100.00;102042.88;5012763;28;20507;-44
2022/11/14 02:43:51;;;;;;;57.83;53.03;;;;;;;8.07;100.00;102046.38;5013608;28;20440;-47
2022/11/14 02:46:19;;;;;;;56.90;52.00;;;;;;;8.12;100.00;102045.94;5013837;28;20487;-45
2022/11/14 02:48:47;;;;;;;57.57;52.67;;;;;;;8.14;100.00;102044.81;5013239;28;20495;-48
2022/11/14 02:51:14;;;;;;;59.93;54.93;;;;;;;8.19;100.00;102041.69;5013076;28;20453;-43
2022/11/14 02:53:42;;;;;;;57.50;52.77;;;;;;;8.21;100.00;102042.41;5012950;28;20526;-45
2022/11/14 02:56:11;;;;;;;58.23;53.23;;;;;;;8.25;100.00;102047.25;5013459;28;20473;-45
2022/11/14 02:58:38;;;;;;;59.07;53.93;;;;;;;8.25;100.00;102052.56;5013434;28;21000;-47
2022/11/14 03:01:06;;;;;;;59.67;54.50;;;;;;;8.25;100.00;102049.91;5013190;28;20479;-46
2022/11/14 03:03:47;;;;;;;60.63;55.33;;;;;;;8.30;100.00;102044.19;5013241;28;20449;-45
2022/11/14 03:06:15;;;;;;;58.67;53.83;;;;;;;8.32;100.00;102043.06;5013263;28;20429;-46
2022/11/14 03:08:43;;;;;;;58.37;53.30;;;;;;;8.36;100.00;102043.59;5013297;28;20429;-43
2022/11/14 03:11:11;;;;;;;60.70;55.57;;;;;;;8.39;100.00;102037.13;5013127;28;20842;-45
2022/11/14 03:13:39;;;;;;;58.97;53.97;;;;;;;8.41;100.00;102032.50;5012628;28;20503;-45
2022/11/14 03:16:08;;;;;;;58.93;53.47;;;;;;;8.43;100.00;102027.84;5013172;28;20437;-44
2022/11/14 03:18:36;;;;;;;58.47;53.47;;;;;;;8.37;100.00;102029.28;5013041;28;20576;-45
2022/11/14 03:21:07;;;;;;;61.17;55.40;;;;;;;8.38;100.00;102025.66;5002420;28;20480;-44
2022/11/14 03:23:35;;;;;;;58.00;52.90;;;;;;;8.38;100.00;102019.50;5012143;28;20523;-45
2022/11/14 03:26:04;;;;;;;58.77;53.67;;;;;;;8.33;100.00;102015.47;5013100;28;20433;-46
2022/11/14 03:28:33;;;;;;;60.50;54.90;;;;;;;8.32;100.00;102007.66;5012844;28;20437;-46
2022/11/14 03:31:00;;;;;;;60.77;55.07;;;;;;;8.34;100.00;102000.38;5012784;28;20556;-44
2022/11/14 03:33:28;;;;;;;62.07;56.73;;;;;;;8.37;100.00;101992.09;5012331;28;20472;-45
2022/11/14 03:35:56;;;;;;;60.00;54.93;;;;;;;8.39;100.00;101994.59;5007123;28;20492;-45
2022/11/14 03:38:24;;;;;;;59.87;54.47;;;;;;;8.40;100.00;101994.44;4992841;28;20478;-46
2022/11/14 03:40:51;;;;;;;60.20;54.50;;;;;;;8.41;100.00;101987.31;4992710;28;20441;-47
2022/11/14 03:43:21;;;;;;;60.80;55.47;;;;;;;8.41;100.00;101988.16;4992664;28;20466;-45
2022/11/14 03:45:49;;;;;;;62.63;57.17;;;;;;;8.44;100.00;101981.69;4992943;28;20434;-44
2022/11/14 03:48:17;;;;;;;61.53;55.90;;;;;;;8.46;100.00;101988.50;4992590;28;20441;-46
2022/11/14 03:50:45;;;;;;;61.43;56.33;;;;;;;8.48;100.00;101983.06;4992928;28;20438;-49
2022/11/14 03:53:12;;;;;;;59.03;53.90;;;;;;;8.51;100.00;101977.44;4992417;28;20524;-44
2022/11/14 03:55:40;;;;;;;63.67;57.87;;;;;;;8.44;100.00;101971.91;4992855;28;20469;-45
2022/11/14 03:58:07;;;;;;;59.53;54.27;;;;;;;8.47;100.00;101973.41;4992526;28;20474;-49
2022/11/14 04:00:35;;;;;;;61.37;55.90;;;;;;;8.41;100.00;101966.03;4992136;28;20777;-45
2022/11/14 04:03:04;;;;;;;63.03;57.23;;;;;;;8.43;100.00;101958.75;4992095;28;20623;-45
2022/11/14 04:05:32;;;;;;;62.07;56.60;;;;;;;8.41;100.00;101956.25;4993068;28;20489;-43
2022/11/14 04:08:00;;;;;;;60.40;55.10;;;;;;;8.42;100.00;101963.25;4993056;28;20442;-46
2022/11/14 04:10:27;;;;;;;62.27;56.80;;;;;;;8.40;100.00;101964.38;4992735;28;20430;-45
2022/11/14 04:12:55;;;;;;;62.23;56.57;;;;;;;8.43;100.00;101964.91;4991896;28;20478;-45
2022/11/14 04:15:23;;;;;;;58.67;53.87;;;;;;;8.46;100.00;101961.09;4993627;28;20465;-46
2022/11/14 04:17:51;;;;;;;60.57;55.03;;;;;;;8.41;100.00;101953.59;5008393;28;20473;-45
2022/11/14 04:20:20;;;;;;;61.63;55.80;;;;;;;8.45;100.00;101956.78;5002280;28;20481;-43
2022/11/14 04:22:47;;;;;;;60.80;55.57;;;;;;;8.45;100.00;101947.00;4993671;28;20465;-44
2022/11/14 04:25:15;;;;;;;59.93;54.60;;;;;;;8.39;100.00;101944.94;5008284;28;20479;-44
2022/11/14 04:27:43;;;;;;;61.43;56.00;;;;;;;8.41;100.00;101942.97;5011591;28;20437;-45
2022/11/14 04:30:11;;;;;;;59.70;54.43;;;;;;;8.44;100.00;101937.34;5012381;28;20441;-46
2022/11/14 04:32:39;;;;;;;62.30;56.60;;;;;;;8.45;100.00;101935.53;5010531;28;20862;-48
2022/11/14 04:35:07;;;;;;;62.87;57.17;;;;;;;8.47;100.00;101933.53;5011405;28;20491;-45
2022/11/14 04:37:38;;;;;;;61.13;56.13;;;;;;;8.45;100.00;101927.53;5011125;28;20882;-44
2022/11/14 04:40:07;;;;;;;61.67;56.30;;;;;;;8.42;100.00;101917.22;5011179;28;20432;-45
2022/11/14 04:42:34;;;;;;;62.37;57.10;;;;;;;8.43;100.00;101916.22;5010285;28;20469;-45
2022/11/14 04:45:02;;;;;;;57.57;52.73;;;;;;;8.45;100.00;101909.78;5011383;28;20446;-46
2022/11/14 04:47:30;;;;;;;59.53;54.23;;;;;;;8.45;100.00;101904.47;5011179;28;20436;-46
2022/11/14 04:49:57;;;;;;;61.57;56.03;;;;;;;8.47;100.00;101912.25;5011232;28;20429;-43
2022/11/14 04:52:25;;;;;;;62.07;56.57;;;;;;;8.49;100.00;101895.16;5010250;28;20985;-46
2022/11/14 04:54:54;;;;;;;61.83;56.30;;;;;;;8.50;100.00;101898.66;5011179;28;20487;-45
2022/11/14 04:57:21;;;;;;;62.10;56.50;;;;;;;8.50;100.00;101903.97;5010937;28;20985;-45
2022/11/14 04:59:49;;;;;;;61.20;55.70;;;;;;;8.49;100.00;101900.47;5011141;28;20437;-46
2022/11/14 05:02:17;;;;;;;61.83;55.97;;;;;;;8.50;100.00;101899.50;5010438;28;20469;-44
2022/11/14 05:04:46;;;;;;;62.20;56.53;;;;;;;8.50;100.00;101896.00;5010773;28;20482;-45
2022/11/14 05:07:14;;;;;;;63.97;58.40;;;;;;;8.49;100.00;101900.47;5010825;28;20441;-46
2022/11/14 05:09:42;;;;;;;62.97;57.23;;;;;;;8.43;100.00;101889.63;5011030;28;20486;-44
2022/11/14 05:12:11;;;;;;;61.60;56.50;;;;;;;8.41;100.00;101888.97;5013689;28;20515;-45
2022/11/14 05:14:38;;;;;;;58.10;53.13;;;;;;;8.35;100.00;101901.03;5013946;28;21024;-46
2022/11/14 05:17:06;;;;;;;57.43;52.53;;;;;;;8.31;100.00;101903.16;5014014;28;20433;-46
2022/11/14 05:19:33;;;;;;;58.10;53.40;;;;;;;8.29;100.00;101894.53;5013994;28;20468;-45
2022/11/14 05:22:01;;;;;;;60.67;55.37;;;;;;;8.28;100.00;101897.31;5003269;28;20522;-45
2022/11/14 05:24:29;;;;;;;59.40;53.83;;;;;;;8.23;100.00;101899.59;5014256;28;20429;-44
2022/11/14 05:26:56;;;;;;;60.03;54.63;;;;;;;8.23;100.00;101899.59;5014215;28;20433;-45
2022/11/14 05:29:25;;;;;;;61.60;56.13;;;;;;;8.24;100.00;101903.91;5014110;28;20437;-46
2022/11/14 05:31:53;;;;;;;60.77;55.50;;;;;;;8.23;100.00;101905.75;4977303;28;1046550;-45
2022/11/14 05:34:20;;;;;;;59.40;53.93;;;;;;;8.23;100.00;101896.91;5014915;28;20256;-44
2022/11/14 05:36:48;;;;;;;59.93;54.73;;;;;;;8.18;100.00;101899.22;5015070;28;20492;-45
2022/11/14 05:39:16;;;;;;;63.40;57.53;;;;;;;8.19;100.00;101900.88;5014957;28;20525;-44
2022/11/14 05:41:44;;;;;;;59.43;54.33;;;;;;;8.11;100.00;101900.81;5014088;28;20511;-45
2022/11/14 05:44:11;;;;;;;60.13;55.03;;;;;;;8.09;100.00;101898.31;5014833;28;20441;-45
2022/11/14 05:46:40;;;;;;;60.63;55.07;;;;;;;8.07;100.00;101888.78;5014872;28;20440;-44
2022/11/14 05:49:08;;;;;;;61.00;55.60;;;;;;;8.06;100.00;101893.31;5014530;28;20483;-45
2022/11/14 05:51:35;;;;;;;61.20;55.73;;;;;;;8.04;100.00;101897.91;5014232;28;20453;-46
2022/11/14 05:54:03;;;;;;;60.23;55.10;;;;;;;8.02;100.00;101891.09;5014568;28;20438;-45
2022/11/14 05:56:31;;;;;;;60.33;55.13;;;;;;;8.05;100.00;101894.28;5014671;28;20490;-47
2022/11/14 05:58:58;;;;;;;62.33;56.97;;;;;;;8.07;100.00;101888.78;5014452;28;20523;-43
2022/11/14 06:01:27;;;;;;;62.90;56.67;;;;;;;8.07;100.00;101886.13;5013523;28;20485;-45
2022/11/14 06:03:56;;;;;;;60.93;55.53;;;;;;;8.10;100.00;101891.16;5014690;28;20495;-45
2022/11/14 06:06:24;;;;;;;60.23;54.93;;;;;;;8.05;100.00;101886.31;5014450;28;20433;-46
2022/11/14 06:08:53;;;;;;;65.00;58.93;;;;;;;8.01;100.00;101878.78;5014437;28;20472;-45
2022/11/14 06:11:21;;;;;;;60.03;55.03;;;;;;;8.04;100.00;101889.09;5013749;28;20449;-44
2022/11/14 06:13:48;;;;;;;60.60;55.17;;;;;;;8.07;100.00;101883.47;5014176;28;20775;-47
2022/11/14 06:16:18;;;;;;;60.67;55.47;;;;;;;8.01;100.00;101887.59;5014396;28;20465;-45
2022/11/14 06:18:46;;;;;;;60.80;55.50;;;;;;;8.00;100.00;101887.75;5014245;28;21045;-44
2022/11/14 06:21:17;;;;;;;58.97;53.83;;;;;;;7.99;100.00;101875.44;5003320;28;20869;-45
2022/11/14 06:23:46;;;;;;;61.10;55.47;;;;;;;8.04;100.00;101886.44;5013237;28;20950;-45
2022/11/14 06:26:20;;;;;;;60.77;55.17;;;;;;;8.03;100.00;101882.13;5014009;28;21113;-45
2022/11/14 06:28:48;;;;;;;58.73;53.30;;;;;;;7.99;100.00;101878.94;5014097;28;20846;-46
2022/11/14 06:31:17;;;;;;;57.43;52.57;;;;;;;7.92;100.00;101880.53;5013525;28;20453;-46
2022/11/14 06:33:44;;;;;;;59.47;54.10;;;;;;;7.96;100.00;101879.25;5037816;22;20535;-46
2022/11/14 06:36:12;;;;;;;60.67;55.43;;;;;;;7.93;100.00;101881.38;5005140;28;20994;-51
2022/11/14 06:38:42;;;;;;;59.27;54.00;;;;;;;7.96;100.00;101873.09;5013479;28;20528;-50
2022/11/14 06:41:12;;;;;;;56.43;51.80;;;;;;;7.91;100.00;101888.66;5013235;28;20934;-45
2022/11/14 06:43:41;;;;;;;60.47;55.23;;;;;;;7.90;100.00;101884.31;5012873;28;20476;-45
2022/11/14 06:46:12;;;;;;;59.83;54.73;;;;;;;7.91;100.00;101884.19;5013355;28;20433;-47
2022/11/14 06:48:40;;;;;;;56.83;52.23;;;;;;;7.90;100.00;101884.31;5013175;28;20432;-45
2022/11/14 06:51:09;;;;;;;61.53;56.00;;;;;;;7.91;100.00;101889.50;5013030;28;20465;-45
2022/11/14 06:53:38;;;;;;;57.97;53.13;;;;;;;7.92;100.00;101898.28;5012503;28;20468;-46
2022/11/14 06:56:10;;;;;;;58.40;53.70;;;;;;;7.91;100.00;101889.50;5013452;28;20434;-45
2022/11/14 06:58:39;;;;;;;56.60;52.00;;;;;;;7.88;100.00;101897.78;5013200;28;20539;-48
2022/11/14 07:01:09;;;;;;;58.70;53.80;;;;;;;7.94;100.00;101904.31;5012797;28;20468;-47
2022/11/14 07:03:37;;;;;;;58.03;53.07;;;;;;;7.96;100.00;101908.47;5012344;28;20469;-45
2022/11/14 07:06:06;;;;;;;59.17;54.37;;;;;;;7.99;100.00;101900.19;5012834;28;20483;-45
2022/11/14 07:08:34;;;;;;;58.27;53.37;;;;;;;8.05;100.00;101910.22;5013048;28;20433;-46
2022/11/14 07:11:03;;;;;;;58.30;53.80;;;;;;;8.06;100.00;101901.28;5012666;28;20527;-51
2022/11/14 07:13:33;;;;;;;57.93;53.20;;;;;;;8.11;100.00;101900.81;5012506;28;20461;-47
2022/11/14 07:16:02;;;;;;;59.77;54.57;;;;;;;8.14;100.00;101890.72;5012668;28;21180;-46
2022/11/14 07:18:31;;;;;;;59.70;54.67;;;;;;;8.07;100.00;101889.63;5012660;28;21044;-46
2022/11/14 07:21:01;;;;;;;59.23;54.43;;;;;;;8.10;100.00;101886.69;5002263;28;20457;-46
2022/11/14 07:23:30;;;;;;;57.17;52.67;;;;;;;8.14;100.00;101890.72;5003876;28;20465;-49
2022/11/14 07:26:01;;;;;;;56.53;51.83;;;;;;;8.13;100.00;101886.38;5012527;28;20985;-45
2022/11/14 07:28:29;;;;;;;59.27;53.97;;;;;;;8.18;100.00;101883.28;5012779;28;20496;-47
2022/11/14 07:30:58;;;;;;;57.80;53.10;;;;;;;8.21;100.00;101875.81;5012242;28;20528;-46
2022/11/14 07:33:26;;;;;;;57.10;52.10;;;;;;;8.20;100.00;101873.31;5011690;28;20477;-46
2022/11/14 07:35:53;;;;;;;57.50;53.20;;;;;;;8.25;100.00;101866.53;5012536;28;20845;-50
2022/11/14 07:38:21;;;;;;;58.87;53.87;;;;;;;8.31;100.00;101859.81;5012507;28;20441;-52
2022/11/14 07:40:55;;;;;;;58.23;53.50;;;;;;;8.30;100.00;101848.34;5012295;28;20437;-46
2022/11/14 07:43:27;;;;;;;60.87;55.87;;;;;;;8.33;100.00;101861.31;5011773;28;20469;-46
2022/11/14 07:45:58;;;;;;;56.90;52.37;;;;;;;8.33;100.00;101855.19;5012415;28;20756;-49
2022/11/14 07:48:28;;;;;;;58.93;53.90;;;;;;;8.39;100.00;101854.56;5012324;28;20495;-49
2022/11/14 07:50:59;;;;;;;59.03;53.97;;;;;;;8.36;100.00;101857.53;5012066;28;20532;-47
2022/11/14 07:53:28;;;;;;;58.37;53.27;;;;;;;8.29;100.00;101854.66;5011767;28;20491;-47
2022/11/14 07:55:56;;;;;;;58.50;53.40;;;;;;;8.22;100.00;101852.72;5012069;28;20433;-51
2022/11/14 07:58:24;;;;;;;57.10;52.30;;;;;;;8.22;100.00;101845.59;5012244;28;20787;-54
2022/11/14 08:00:51;;;;;;;57.60;52.63;;;;;;;8.28;100.00;101847.66;5012030;28;20483;-51
2022/11/14 08:03:20;;;;;;;56.47;51.70;;;;;;;8.29;100.00;101846.69;5011468;28;20468;-48
2022/11/14 08:05:49;;;;;;;56.40;51.90;;;;;;;8.31;100.00;101851.84;5012007;28;20491;-47
2022/11/14 08:08:16;;;;;;;56.27;51.57;;;;;;;8.30;100.00;101851.00;5012060;28;20791;-45
2022/11/14 08:10:44;;;;;;;56.57;51.57;;;;;;;8.26;100.00;101846.97;5011726;28;20437;-46
2022/11/14 08:13:12;;;;;;;56.57;51.67;;;;;;;8.22;100.00;101848.25;5011459;28;20464;-51
2022/11/14 08:16:04;;;;;;;57.70;53.00;;;;;;;8.23;100.00;101857.06;5012017;28;20468;-46
2022/11/14 08:18:39;;;;;;;59.50;54.40;;;;;;;8.19;100.00;101848.56;5011905;28;20441;-48
2022/11/14 08:21:08;;;;;;;57.70;52.73;;;;;;;8.18;100.00;101854.03;5000005;28;20500;-46
2022/11/14 08:23:35;;;;;;;56.57;51.87;;;;;;;8.16;100.00;101863.97;4999362;28;20465;-47
2022/11/14 08:26:03;;;;;;;55.87;51.17;;;;;;;8.16;100.00;101848.03;4992190;28;20950;-48
2022/11/14 08:28:31;;;;;;;59.60;54.50;;;;;;;8.19;100.00;101859.19;4992222;28;20938;-47
2022/11/14 08:31:01;;;;;;;60.03;54.93;;;;;;;8.20;100.00;101850.25;4991964;28;20930;-48
2022/11/14 08:33:30;;;;;;;54.53;50.13;;;;;;;8.23;100.00;101857.91;4991390;28;21009;-45
2022/11/14 08:36:00;;;;;;;59.37;54.37;;;;;;;8.25;100.00;101839.13;4992392;28;20442;-52
2022/11/14 08:38:31;;;;;;;60.13;54.20;;;;;;;8.22;100.00;101844.75;4992278;28;20450;-47
2022/11/14 08:40:59;;;;;;;58.17;53.30;;;;;;;8.28;100.00;101834.38;4991915;28;20480;-51
2022/11/14 08:43:27;;;;;;;57.53;52.33;;;;;;;8.38;100.00;101833.44;4991666;28;20466;-46
2022/11/14 08:45:57;;;;;;;56.83;52.20;;;;;;;8.28;100.00;101831.72;4993909;28;21017;-50
2022/11/14 08:48:29;;;;;;;57.70;52.80;;;;;;;8.32;100.00;101837.56;4996094;28;20512;-50
2022/11/14 08:50:57;;;;;;;57.53;52.43;;;;;;;8.36;100.00;101836.28;4995782;28;20430;-48
2022/11/14 08:53:25;;;;;;;57.87;52.77;;;;;;;8.33;100.00;101834.75;4995306;28;20801;-48
2022/11/14 08:55:54;;;;;;;59.70;54.40;;;;;;;8.30;100.00;101827.06;4995702;28;20434;-50
2022/11/14 08:58:22;;;;;;;56.70;51.80;;;;;;;8.37;100.00;101832.59;4995730;28;20788;-47
2022/11/14 09:00:50;;;;;;;61.40;55.90;;;;;;;8.34;100.00;101820.47;4995160;28;20502;-46
2022/11/14 09:03:18;;;;;;;61.43;55.97;;;;;;;8.33;100.00;101810.81;4995013;28;20502;-49
2022/11/14 09:05:51;;;;;;;60.47;55.00;;;;;;;8.42;100.00;101813.56;4995684;28;20445;-50
2022/11/14 09:08:19;;;;;;;60.27;54.97;;;;;;;8.45;100.00;101794.63;4995639;28;20450;-48
2022/11/14 09:10:47;;;;;;;58.13;53.40;;;;;;;8.50;100.00;101797.66;4995280;28;20434;-48
2022/11/14 09:13:16;;;;;;;58.50;53.50;;;;;;;8.43;100.00;101799.25;4994648;28;21061;-49
2022/11/14 09:15:44;;;;;;;58.73;53.57;;;;;;;8.44;100.00;101791.13;4995408;28;21145;-47
2022/11/14 09:18:12;;;;;;;60.83;55.50;;;;;;;8.47;100.00;101795.31;4995493;28;20460;-50
2022/11/14 09:20:40;;;;;;;61.37;55.97;;;;;;;8.44;100.00;101795.63;4998167;28;20473;-49
2022/11/14 09:23:07;;;;;;;60.37;54.67;;;;;;;8.44;100.00;101788.47;5006015;28;20460;-47
2022/11/14 09:25:36;;;;;;;62.20;56.50;;;;;;;8.50;100.00;101779.88;5014551;28;20433;-49
2022/11/14 09:28:05;;;;;;;59.63;54.50;;;;;;;8.54;100.00;101785.72;5015046;28;20494;-46
2022/11/14 09:30:35;;;;;;;60.83;55.53;;;;;;;8.62;100.00;101794.56;5014807;28;20425;-45
2022/11/14 09:33:04;;;;;;;59.20;54.17;;;;;;;8.69;100.00;101805.41;5014035;28;20519;-46
2022/11/14 09:35:38;;;;;;;58.90;53.70;;;;;;;8.76;100.00;101793.97;5014645;28;20919;-45
2022/11/14 09:38:07;;;;;;;59.03;53.80;;;;;;;8.74;100.00;101792.47;5014486;28;20495;-48
2022/11/14 09:40:48;;;;;;;59.13;53.97;;;;;;;8.76;100.00;101793.13;5014641;28;20473;-48
2022/11/14 09:43:38;;;;;;;59.60;54.13;;;;;;;8.68;100.00;101783.28;5013971;28;20476;-47
2022/11/14 09:46:18;;;;;;;60.47;55.57;;;;;;;8.64;100.00;101791.72;5014515;28;20437;-45
2022/11/14 09:48:46;;;;;;;61.07;55.67;;;;;;;8.70;100.00;101788.44;5014348;28;20487;-47
2022/11/14 09:51:19;;;;;;;57.70;52.63;;;;;;;8.69;100.00;101776.97;5014344;28;20487;-45
2022/11/14 09:53:53;;;;;;;61.40;56.00;;;;;;;8.70;100.00;101781.31;5014108;28;20842;-45
2022/11/14 09:56:24;;;;;;;60.10;54.73;;;;;;;8.65;100.00;101777.44;5013441;28;20918;-45
2022/11/14 09:58:52;;;;;;;62.73;57.13;;;;;;;8.68;100.00;101766.50;5013873;28;20433;-45
2022/11/14 10:01:32;;;;;;;61.93;56.60;;;;;;;8.72;100.00;101762.53;5013333;28;20997;-46
2022/11/14 10:04:09;;;;;;;61.23;55.90;;;;;;;8.71;100.00;101766.19;5014257;28;20449;-48
2022/11/14 10:06:45;;;;;;;64.07;58.23;;;;;;;8.80;100.00;101762.56;5014182;28;20429;-47
2022/11/14 10:09:44;;;;;;;60.40;54.83;;;;;;;8.87;100.00;101769.72;5013906;28;21127;-46
2022/11/14 10:12:17;;;;;;;59.27;54.00;;;;;;;8.88;100.00;101779.38;5001319;28;20531;-46
2022/11/14 10:15:01;;;;;;;62.97;57.37;;;;;;;9.04;100.00;101781.28;5013819;28;20449;-47
2022/11/14 10:17:54;;;;;;;63.20;57.53;;;;;;;9.19;100.00;101785.00;5013859;28;20441;-47
2022/11/14 10:20:30;;;;;;;65.17;59.13;;;;;;;9.30;100.00;101773.19;5008765;28;20843;-48
2022/11/14 10:23:12;;;;;;;62.90;56.87;;;;;;;9.32;100.00;101780.00;5004921;28;20877;-53
2022/11/14 10:25:54;;;;;;;60.00;55.00;;;;;;;9.37;100.00;101780.38;5013740;28;20433;-50
2022/11/14 10:28:44;;;;;;;61.90;56.57;;;;;;;9.24;100.00;101771.19;5013801;28;20449;-49
2022/11/14 10:31:21;;;;;;;62.07;56.13;;;;;;;9.16;100.00;101768.50;5013485;28;20482;-48
2022/11/14 10:33:59;;;;;;;61.90;56.60;;;;;;;9.17;100.00;101770.19;5013225;28;20452;-50
2022/11/14 10:36:39;;;;;;;62.90;57.00;;;;;;;9.08;100.00;101763.97;5013208;28;20937;-51
2022/11/14 10:39:16;;;;;;;62.10;56.00;;;;;;;9.04;100.00;101752.00;5013652;28;20429;-47
2022/11/14 10:41:46;;;;;;;61.17;55.63;;;;;;;8.99;100.00;101748.19;5012815;28;20468;-49
2022/11/14 10:44:38;;;;;;;61.77;56.27;;;;;;;9.11;100.00;101747.69;5013098;28;20484;-50
2022/11/14 10:47:12;;;;;;;63.43;57.30;;;;;;;9.35;100.00;101752.22;5013173;28;20441;-48
2022/11/14 10:49:40;;;;;;;60.77;55.07;;;;;;;9.45;100.00;101755.59;5013510;28;20479;-50
2022/11/14 10:52:13;;;;;;;63.03;57.70;;;;;;;9.54;100.00;101741.28;5012663;28;20877;-50
2022/11/14 10:54:45;;;;;;;63.20;57.23;;;;;;;9.44;100.00;101751.25;5013135;28;20503;-50
2022/11/14 10:57:18;;;;;;;62.60;56.60;;;;;;;9.47;100.00;101750.91;5013014;28;20834;-50
2022/11/14 10:59:47;;;;;;;62.50;56.53;;;;;;;9.36;100.00;101732.59;5012965;28;20926;-50
2022/11/14 11:02:15;;;;;;;63.53;57.43;;;;;;;9.51;100.00;101738.94;5012235;28;21354;-50
2022/11/14 11:04:45;;;;;;;64.13;57.87;;;;;;;9.48;100.00;101746.44;5013000;28;20863;-46
2022/11/14 11:13:05;;;;;;;64.27;58.07;;;;;;;9.25;100.00;101733.78;5012107;28;20523;-48
2022/11/14 11:15:40;;;;;;;61.07;55.67;;;;;;;9.12;100.00;101740.53;5012703;28;20436;-51
2022/11/14 11:18:25;;;;;;;60.47;55.17;;;;;;;9.07;100.00;101725.09;5012647;28;20490;-49
2022/11/14 11:21:13;;;;;;;62.47;57.00;;;;;;;9.02;100.00;101727.38;5007219;28;20523;-49
2022/11/14 11:23:49;;;;;;;65.23;58.53;;;;;;;9.15;100.00;101732.22;5003992;28;20462;-45
2022/11/14 11:26:20;;;;;;;66.63;60.07;;;;;;;9.21;100.00;101727.09;5012539;28;20838;-45